Time;durP1;ratioP1;P1;durP2;ratioP2;P2;SDS_P1;SDS_P2;PMS_P1;PMS_P2;Temp;Humidity;BMP_temperature;BMP_pressure;BME280_temperature;BME280_humidity;BME280_pressure;Samples;Min_cycle;Max_cycle;Signal;HPM_P1;HPM_P2
2022/04/15 00:00:14;;;;;;;2.03;1.77;;;;;;;;;;5119295;28;20204;-79
2022/04/15 00:02:42;;;;;;;2.30;1.47;;;;;;;;;;5119177;28;20233;-79
2022/04/15 00:07:57;;;;;;;2.00;1.43;;;;;;;;;;5119352;28;20204;-79
2022/04/15 00:10:28;;;;;;;3.77;1.50;;;;;;;;;;5119501;28;20209;-79
2022/04/15 00:12:56;;;;;;;2.83;1.60;;;;;;;;;;5119019;28;20208;-79
2022/04/15 00:15:24;;;;;;;2.60;1.90;;;;;;;;;;5118931;28;20216;-79
2022/04/15 00:17:52;;;;;;;3.83;1.70;;;;;;;;;;5114284;28;20201;-79
2022/04/15 00:20:20;;;;;;;2.43;1.10;;;;;;;;;;5119297;28;20205;-79
2022/04/15 00:22:48;;;;;;;6.67;1.50;;;;;;;;;;5118983;28;20576;-79
2022/04/15 00:25:18;;;;;;;2.27;1.20;;;;;;;;;;5119198;28;20224;-78
2022/04/15 00:27:49;;;;;;;1.10;0.93;;;;;;;;;;5118663;28;20197;-79
2022/04/15 00:30:18;;;;;;;0.90;0.90;;;;;;;;;;5118874;28;20208;-79
2022/04/15 00:32:46;;;;;;;3.03;1.47;;;;;;;;;;5119158;27;20218;-79
2022/04/15 00:35:14;;;;;;;1.83;1.73;;;;;;;;;;5118879;28;20196;-79
2022/04/15 00:37:42;;;;;;;4.80;1.70;;;;;;;;;;5118654;28;20200;-79
2022/04/15 00:40:10;;;;;;;2.33;1.20;;;;;;;;;;5119152;28;20205;-78
2022/04/15 00:42:40;;;;;;;3.50;1.40;;;;;;;;;;5118836;28;20209;-79
2022/04/15 00:45:09;;;;;;;4.20;1.37;;;;;;;;;;5118812;28;20711;-79
2022/04/15 00:47:46;;;;;;;1.60;1.30;;;;;;;;;;5118610;28;20200;-79
2022/04/15 00:50:15;;;;;;;3.10;1.60;;;;;;;;;;5118389;28;20207;-79
2022/04/15 00:52:44;;;;;;;1.63;1.50;;;;;;;;;;5118702;28;20204;-79
2022/04/15 00:55:12;;;;;;;2.13;1.40;;;;;;;;;;5118436;28;20203;-79
2022/04/15 00:57:42;;;;;;;1.73;1.30;;;;;;;;;;5118138;28;20215;-79
2022/04/15 01:00:11;;;;;;;2.10;1.30;;;;;;;;;;5118421;28;20663;-78
2022/04/15 01:02:39;;;;;;;1.20;1.10;;;;;;;;;;5118422;28;20239;-79
2022/04/15 01:05:08;;;;;;;4.10;1.40;;;;;;;;;;5118055;28;20252;-79
2022/04/15 01:07:37;;;;;;;3.20;1.23;;;;;;;;;;5118234;28;20230;-79
2022/04/15 01:10:07;;;;;;;2.57;1.00;;;;;;;;;;5118126;28;20207;-79
2022/04/15 01:12:37;;;;;;;2.83;1.23;;;;;;;;;;5118171;28;20204;-79
2022/04/15 01:15:08;;;;;;;1.17;0.93;;;;;;;;;;5118251;28;20207;-79
2022/04/15 01:17:36;;;;;;;3.03;1.57;;;;;;;;;;5114206;28;20683;-78
2022/04/15 01:20:05;;;;;;;2.07;1.30;;;;;;;;;;5117896;28;20662;-78
2022/04/15 01:22:34;;;;;;;1.40;1.30;;;;;;;;;;5118331;28;20204;-78
2022/04/15 01:25:04;;;;;;;1.87;1.10;;;;;;;;;;5118206;28;20205;-78
2022/04/15 01:27:33;;;;;;;2.30;1.30;;;;;;;;;;5117679;28;20288;-78
2022/04/15 01:30:02;;;;;;;2.50;1.33;;;;;;;;;;5118189;28;20211;-79
2022/04/15 01:32:29;;;;;;;2.03;1.53;;;;;;;;;;5117904;28;20276;-79
2022/04/15 01:34:57;;;;;;;4.83;1.30;;;;;;;;;;5118250;28;20208;-78
2022/04/15 01:37:25;;;;;;;1.70;1.37;;;;;;;;;;5118170;28;20648;-78
2022/04/15 01:39:53;;;;;;;1.30;1.20;;;;;;;;;;5117880;28;20204;-79
2022/04/15 01:42:23;;;;;;;1.80;1.20;;;;;;;;;;5117266;28;20671;-78
2022/04/15 01:44:51;;;;;;;1.80;1.17;;;;;;;;;;5118220;28;20215;-79
2022/04/15 01:47:19;;;;;;;0.93;0.93;;;;;;;;;;5117696;28;20229;-79
2022/04/15 01:49:47;;;;;;;1.17;1.10;;;;;;;;;;5117694;28;20280;-79
2022/04/15 01:52:15;;;;;;;2.37;1.50;;;;;;;;;;5117854;28;20201;-78
2022/04/15 01:54:43;;;;;;;2.60;1.37;;;;;;;;;;5117635;28;20215;-78
2022/04/15 01:57:11;;;;;;;1.60;1.30;;;;;;;;;;5117333;28;20220;-78
2022/04/15 01:59:41;;;;;;;4.27;1.13;;;;;;;;;;5118022;28;20204;-78
2022/04/15 02:02:09;;;;;;;1.33;1.17;;;;;;;;;;5117747;28;20233;-78
2022/04/15 02:04:37;;;;;;;3.63;1.57;;;;;;;;;;5117729;28;20595;-78
2022/04/15 02:07:05;;;;;;;1.97;1.40;;;;;;;;;;5117724;28;20228;-78
2022/04/15 02:09:33;;;;;;;1.77;1.20;;;;;;;;;;5117281;28;20288;-79
2022/04/15 02:12:01;;;;;;;1.50;1.20;;;;;;;;;;5118079;28;20572;-77
2022/04/15 02:14:29;;;;;;;2.60;1.30;;;;;;;;;;5121847;28;20204;-78
2022/04/15 02:16:59;;;;;;;2.03;1.60;;;;;;;;;;5121822;28;20231;-78
2022/04/15 02:19:27;;;;;;;3.23;1.70;;;;;;;;;;5116718;28;20575;-79
2022/04/15 02:21:55;;;;;;;3.03;1.37;;;;;;;;;;5121780;28;20256;-78
2022/04/15 02:24:22;;;;;;;1.43;1.30;;;;;;;;;;5121350;28;20635;-79
2022/04/15 02:26:50;;;;;;;1.27;1.17;;;;;;;;;;5120961;28;20706;-78
2022/04/15 02:29:18;;;;;;;2.63;1.90;;;;;;;;;;5120901;28;20570;-78
2022/04/15 02:31:46;;;;;;;2.20;1.73;;;;;;;;;;5121487;28;20209;-78
2022/04/15 02:34:16;;;;;;;2.53;1.50;;;;;;;;;;5121484;28;20208;-79
2022/04/15 02:36:44;;;;;;;2.10;1.60;;;;;;;;;;5121153;28;20568;-79
2022/04/15 02:39:12;;;;;;;3.67;2.00;;;;;;;;;;5121206;28;20209;-78
2022/04/15 02:41:40;;;;;;;2.60;1.70;;;;;;;;;;5121036;28;20211;-79
2022/04/15 02:44:08;;;;;;;4.97;1.87;;;;;;;;;;5121441;28;20208;-79
2022/04/15 02:46:37;;;;;;;4.23;1.93;;;;;;;;;;5120964;28;20235;-78
2022/04/15 02:49:05;;;;;;;1.67;1.57;;;;;;;;;;5120597;28;20200;-79
2022/04/15 02:51:34;;;;;;;3.03;2.10;;;;;;;;;;5120656;28;20236;-78
2022/04/15 02:54:02;;;;;;;6.23;1.90;;;;;;;;;;5121127;28;20210;-79
2022/04/15 02:56:30;;;;;;;4.47;1.83;;;;;;;;;;5120836;28;20216;-79
2022/04/15 02:58:58;;;;;;;3.10;1.70;;;;;;;;;;5121195;28;20215;-78
2022/04/15 03:01:26;;;;;;;3.53;1.60;;;;;;;;;;5120971;28;20205;-78
2022/04/15 03:03:54;;;;;;;1.70;1.60;;;;;;;;;;5120729;28;20731;-78
2022/04/15 03:06:22;;;;;;;2.23;1.90;;;;;;;;;;5120874;28;20229;-78
2022/04/15 03:08:51;;;;;;;2.97;2.10;;;;;;;;;;5121484;28;20196;-78
2022/04/15 03:11:19;;;;;;;3.47;2.13;;;;;;;;;;5121464;28;20205;-78
2022/04/15 03:13:47;;;;;;;1.80;1.70;;;;;;;;;;5120845;28;20205;-79
2022/04/15 03:16:15;;;;;;;2.33;1.70;;;;;;;;;;5120302;28;20212;-78
2022/04/15 03:18:43;;;;;;;6.57;2.00;;;;;;;;;;5115864;28;20204;-78
2022/04/15 03:21:11;;;;;;;2.20;2.00;;;;;;;;;;5120462;28;20205;-78
2022/04/15 03:23:42;;;;;;;2.90;2.00;;;;;;;;;;5119311;28;20209;-79
2022/04/15 03:26:11;;;;;;;3.27;1.77;;;;;;;;;;5120047;28;20307;-78
2022/04/15 03:28:39;;;;;;;4.73;2.47;;;;;;;;;;5119771;28;20204;-79
2022/04/15 03:31:09;;;;;;;6.53;3.47;;;;;;;;;;5118115;27;20197;-79
2022/04/15 03:33:39;;;;;;;4.03;2.27;;;;;;;;;;5119130;28;20246;-78
2022/04/15 03:36:07;;;;;;;5.10;2.37;;;;;;;;;;5116682;28;20223;-79
2022/04/15 03:38:35;;;;;;;4.40;2.40;;;;;;;;;;5118834;28;20189;-79
2022/04/15 03:41:03;;;;;;;2.00;1.90;;;;;;;;;;5118264;28;20867;-77
2022/04/15 03:43:33;;;;;;;3.43;1.90;;;;;;;;;;5118523;28;20201;-77
2022/04/15 03:46:01;;;;;;;3.27;2.27;;;;;;;;;;5118765;28;20231;-80
2022/04/15 03:48:29;;;;;;;1.83;1.67;;;;;;;;;;5116262;28;20224;-77
2022/04/15 03:50:57;;;;;;;2.33;2.10;;;;;;;;;;5117713;28;20200;-79
2022/04/15 03:53:25;;;;;;;2.50;2.03;;;;;;;;;;5118504;28;20717;-79
2022/04/15 03:55:54;;;;;;;1.80;1.70;;;;;;;;;;5118398;28;20278;-79
2022/04/15 03:58:22;;;;;;;2.50;1.90;;;;;;;;;;5117897;28;20201;-78
2022/04/15 04:00:52;;;;;;;2.50;2.30;;;;;;;;;;5118762;28;20676;-78
2022/04/15 04:03:21;;;;;;;5.23;2.40;;;;;;;;;;5118359;28;20228;-77
2022/04/15 04:05:49;;;;;;;3.73;2.23;;;;;;;;;;5118427;28;20240;-78
2022/04/15 04:08:17;;;;;;;2.30;1.80;;;;;;;;;;5118473;28;20217;-78
2022/04/15 04:10:45;;;;;;;2.47;2.20;;;;;;;;;;5115412;28;20296;-79
2022/04/15 04:13:13;;;;;;;5.50;2.43;;;;;;;;;;5117909;28;20239;-79
2022/04/15 04:15:41;;;;;;;4.53;2.20;;;;;;;;;;5118394;28;20240;-79
2022/04/15 04:18:13;;;;;;;2.20;1.97;;;;;;;;;;5118173;28;20202;-79
2022/04/15 04:20:41;;;;;;;3.93;2.10;;;;;;;;;;5118298;28;20288;-79
2022/04/15 04:23:10;;;;;;;2.27;2.07;;;;;;;;;;5117410;28;20200;-79
2022/04/15 04:25:38;;;;;;;2.73;2.30;;;;;;;;;;5117476;28;21729;-79
2022/04/15 04:28:06;;;;;;;1.80;1.70;;;;;;;;;;5118889;28;20683;-77
2022/04/15 04:30:33;;;;;;;2.47;1.93;;;;;;;;;;5116180;28;20196;-79
2022/04/15 04:33:02;;;;;;;2.50;1.77;;;;;;;;;;5118978;28;20205;-79
2022/04/15 04:35:31;;;;;;;3.83;2.17;;;;;;;;;;5118073;28;20217;-78
2022/04/15 04:37:59;;;;;;;2.90;2.23;;;;;;;;;;5117974;28;20197;-78
2022/04/15 04:40:27;;;;;;;2.67;2.47;;;;;;;;;;5117488;28;20203;-74
2022/04/15 04:42:56;;;;;;;3.67;2.30;;;;;;;;;;5118205;28;20549;-71
2022/04/15 04:45:24;;;;;;;2.33;2.13;;;;;;;;;;5116564;28;20707;-74
2022/04/15 04:47:53;;;;;;;3.07;2.83;;;;;;;;;;5116547;28;20233;-73
2022/04/15 04:50:21;;;;;;;3.83;2.20;;;;;;;;;;5116703;27;20563;-74
2022/04/15 04:52:51;;;;;;;3.17;2.10;;;;;;;;;;5117869;28;20207;-72
2022/04/15 04:55:19;;;;;;;3.47;2.00;;;;;;;;;;5118087;28;20232;-73
2022/04/15 04:57:47;;;;;;;5.70;2.63;;;;;;;;;;5117614;28;20215;-71
2022/04/15 05:00:16;;;;;;;2.83;1.93;;;;;;;;;;5118237;28;20279;-73
2022/04/15 05:02:44;;;;;;;3.47;2.40;;;;;;;;;;5117630;28;20237;-73
2022/04/15 05:05:12;;;;;;;3.97;2.13;;;;;;;;;;5118009;28;20201;-72
2022/04/15 05:07:40;;;;;;;2.73;2.53;;;;;;;;;;5117576;28;20244;-73
2022/04/15 05:10:10;;;;;;;4.80;2.67;;;;;;;;;;5113576;28;20206;-73
2022/04/15 05:12:38;;;;;;;4.80;2.70;;;;;;;;;;5115560;28;20197;-72
2022/04/15 05:15:07;;;;;;;3.43;2.50;;;;;;;;;;5117223;28;20203;-73
2022/04/15 05:17:35;;;;;;;5.63;2.70;;;;;;;;;;5114550;28;20203;-73
2022/04/15 05:20:03;;;;;;;4.00;2.47;;;;;;;;;;5117116;28;20204;-73
2022/04/15 05:22:31;;;;;;;2.50;2.30;;;;;;;;;;5117121;28;20201;-73
2022/04/15 05:25:01;;;;;;;5.83;2.93;;;;;;;;;;5116539;28;20201;-72
2022/04/15 05:27:32;;;;;;;2.73;2.53;;;;;;;;;;5116720;28;20697;-72
2022/04/15 05:30:00;;;;;;;3.03;2.73;;;;;;;;;;5115666;28;20206;-73
2022/04/15 05:32:28;;;;;;;2.87;2.53;;;;;;;;;;5117280;28;20257;-72
2022/04/15 05:34:56;;;;;;;4.67;2.80;;;;;;;;;;5114079;28;20219;-73
2022/04/15 05:37:23;;;;;;;4.03;2.60;;;;;;;;;;5109325;28;20534;-73
2022/04/15 05:39:51;;;;;;;2.63;2.10;;;;;;;;;;5116778;28;20219;-73
2022/04/15 05:42:19;;;;;;;3.13;2.40;;;;;;;;;;5116097;28;20640;-73
2022/04/15 05:44:49;;;;;;;3.10;2.60;;;;;;;;;;5114916;28;20207;-73
2022/04/15 05:47:17;;;;;;;3.47;3.07;;;;;;;;;;5118487;28;20306;-73
2022/04/15 05:49:45;;;;;;;4.50;2.97;;;;;;;;;;5113447;28;20204;-73
2022/04/15 05:52:14;;;;;;;4.67;2.90;;;;;;;;;;5113023;28;20200;-73
2022/04/15 05:54:42;;;;;;;3.47;2.30;;;;;;;;;;5110827;28;20236;-73
2022/04/15 05:57:10;;;;;;;4.23;2.30;;;;;;;;;;5111947;28;20288;-73
2022/04/15 05:59:38;;;;;;;2.73;2.50;;;;;;;;;;5114832;27;20223;-73
2022/04/15 06:02:07;;;;;;;8.90;2.70;;;;;;;;;;5119718;27;20235;-73
2022/04/15 06:04:35;;;;;;;3.40;2.50;;;;;;;;;;5115799;28;20197;-73
2022/04/15 06:07:04;;;;;;;3.03;2.73;;;;;;;;;;5115297;28;20231;-74
2022/04/15 06:09:32;;;;;;;5.33;3.10;;;;;;;;;;5120569;28;20219;-74
2022/04/15 06:11:59;;;;;;;5.50;2.80;;;;;;;;;;5120330;28;20207;-74
2022/04/15 06:14:33;;;;;;;5.57;3.40;;;;;;;;;;5120318;28;20193;-74
2022/04/15 06:17:01;;;;;;;2.87;2.67;;;;;;;;;;5121072;28;20222;-74
2022/04/15 06:19:30;;;;;;;6.17;3.07;;;;;;;;;;5120282;28;20193;-74
2022/04/15 06:22:03;;;;;;;5.27;3.10;;;;;;;;;;5119878;28;20564;-74
2022/04/15 06:24:31;;;;;;;7.70;3.03;;;;;;;;;;5117703;27;20192;-74
2022/04/15 06:26:59;;;;;;;7.03;2.90;;;;;;;;;;5120116;28;20307;-74
2022/04/15 06:29:27;;;;;;;3.13;2.83;;;;;;;;;;5120233;28;20221;-74
2022/04/15 06:31:55;;;;;;;5.20;3.40;;;;;;;;;;5119580;28;20196;-74
2022/04/15 06:34:23;;;;;;;3.47;2.47;;;;;;;;;;5121097;27;20197;-74
2022/04/15 06:36:55;;;;;;;8.13;2.57;;;;;;;;;;5119575;28;20213;-73
2022/04/15 06:39:23;;;;;;;5.27;3.73;;;;;;;;;;5114473;27;20193;-74
2022/04/15 06:41:51;;;;;;;3.87;2.87;;;;;;;;;;5113542;28;20201;-74
2022/04/15 06:44:19;;;;;;;2.63;2.20;;;;;;;;;;5109848;28;20224;-75
2022/04/15 06:46:47;;;;;;;5.83;3.03;;;;;;;;;;5113548;28;20308;-75
2022/04/15 06:49:15;;;;;;;4.63;2.77;;;;;;;;;;5109236;28;20223;-72
2022/04/15 06:51:43;;;;;;;7.90;2.87;;;;;;;;;;5115861;28;20193;-76
2022/04/15 06:54:12;;;;;;;4.57;2.90;;;;;;;;;;5112551;28;20208;-75
2022/04/15 06:56:40;;;;;;;8.43;3.00;;;;;;;;;;5111185;28;20221;-74
2022/04/15 06:59:10;;;;;;;5.93;3.30;;;;;;;;;;5110980;28;20193;-78
2022/04/15 07:01:38;;;;;;;4.07;2.80;;;;;;;;;;5112550;27;20280;-74
2022/04/15 07:04:06;;;;;;;3.27;2.50;;;;;;;;;;5118412;28;20213;-76
2022/04/15 07:06:34;;;;;;;6.20;3.10;;;;;;;;;;5119743;28;20310;-76
2022/04/15 07:09:02;;;;;;;5.93;2.67;;;;;;;;;;5119527;28;20224;-76
2022/04/15 07:11:31;;;;;;;8.90;3.73;;;;;;;;;;5119533;28;20193;-75
2022/04/15 07:13:59;;;;;;;5.27;2.50;;;;;;;;;;5119207;28;20208;-75
2022/04/15 07:16:27;;;;;;;4.80;3.10;;;;;;;;;;5119825;27;20691;-75
2022/04/15 07:18:56;;;;;;;2.80;2.60;;;;;;;;;;5118384;27;20258;-76
2022/04/15 07:21:24;;;;;;;6.07;3.13;;;;;;;;;;5118835;28;20675;-75
2022/04/15 07:23:52;;;;;;;3.10;2.83;;;;;;;;;;5120257;27;20842;-75
2022/04/15 07:26:20;;;;;;;6.53;3.17;;;;;;;;;;5119565;27;20303;-75
2022/04/15 07:28:50;;;;;;;4.87;2.80;;;;;;;;;;5119080;27;20242;-76
2022/04/15 07:31:18;;;;;;;4.23;3.00;;;;;;;;;;5121395;27;20280;-75
2022/04/15 07:33:46;;;;;;;3.10;2.80;;;;;;;;;;5120899;27;20201;-75
2022/04/15 07:38:56;;;;;;;5.47;3.23;;;;;;;;;;5114679;28;20197;-77
2022/04/15 07:41:24;;;;;;;3.23;2.90;;;;;;;;;;5111954;28;20664;-74
2022/04/15 07:43:53;;;;;;;3.47;3.00;;;;;;;;;;5115239;28;20284;-75
2022/04/15 07:46:21;;;;;;;5.40;2.60;;;;;;;;;;5112295;28;20754;-74
2022/04/15 07:48:50;;;;;;;6.47;3.00;;;;;;;;;;5115027;28;20620;-74
2022/04/15 07:51:18;;;;;;;4.80;3.00;;;;;;;;;;5105194;28;20656;-74
2022/04/15 07:53:46;;;;;;;4.93;3.13;;;;;;;;;;5111138;28;20207;-75
2022/04/15 07:56:14;;;;;;;3.47;2.67;;;;;;;;;;5104922;28;20221;-75
2022/04/15 07:58:42;;;;;;;6.40;3.10;;;;;;;;;;5108230;27;20201;-74
2022/04/15 08:01:11;;;;;;;4.93;2.90;;;;;;;;;;5107566;28;20208;-75
2022/04/15 08:03:39;;;;;;;3.53;2.83;;;;;;;;;;5106809;27;20256;-73
2022/04/15 08:06:07;;;;;;;5.10;2.47;;;;;;;;;;5112922;27;20220;-74
2022/04/15 08:08:35;;;;;;;4.73;2.87;;;;;;;;;;5110680;28;20199;-74
2022/04/15 08:11:03;;;;;;;3.83;2.90;;;;;;;;;;5113578;28;20208;-76
2022/04/15 08:13:32;;;;;;;3.47;3.10;;;;;;;;;;5114604;28;20197;-75
2022/04/15 08:16:00;;;;;;;8.37;3.60;;;;;;;;;;5114437;28;20274;-76
2022/04/15 08:18:29;;;;;;;5.03;3.40;;;;;;;;;;5117843;28;20197;-78
2022/04/15 08:20:57;;;;;;;13.63;3.60;;;;;;;;;;5118724;28;20201;-78
2022/04/15 08:23:26;;;;;;;5.30;3.67;;;;;;;;;;5117736;28;20200;-79
2022/04/15 08:25:54;;;;;;;4.70;3.33;;;;;;;;;;5117353;28;20225;-78
2022/04/15 08:28:22;;;;;;;4.33;3.27;;;;;;;;;;5113410;28;20207;-79
2022/04/15 08:30:50;;;;;;;8.80;3.70;;;;;;;;;;5118112;27;20221;-79
2022/04/15 08:33:18;;;;;;;5.57;4.20;;;;;;;;;;5118151;27;20201;-77
2022/04/15 08:35:48;;;;;;;5.00;3.60;;;;;;;;;;5117797;28;20216;-78
2022/04/15 08:38:16;;;;;;;7.40;4.30;;;;;;;;;;5117224;28;20211;-79
2022/04/15 08:40:44;;;;;;;9.77;4.20;;;;;;;;;;5115183;28;20188;-78
2022/04/15 08:43:12;;;;;;;7.13;4.00;;;;;;;;;;5117429;28;20201;-79
2022/04/15 08:45:41;;;;;;;7.10;4.23;;;;;;;;;;5117593;28;20688;-78
2022/04/15 08:48:10;;;;;;;7.50;6.40;;;;;;;;;;5117261;28;20201;-78
2022/04/15 08:50:38;;;;;;;6.50;4.23;;;;;;;;;;5117315;28;20237;-76
2022/04/15 08:53:08;;;;;;;7.57;4.50;;;;;;;;;;5118029;28;20207;-79
2022/04/15 08:55:36;;;;;;;7.67;5.17;;;;;;;;;;5116572;28;20224;-77
2022/04/15 08:58:04;;;;;;;10.07;5.80;;;;;;;;;;5118309;28;20227;-75
2022/04/15 09:00:33;;;;;;;13.33;5.63;;;;;;;;;;5118068;28;20609;-80
2022/04/15 09:03:03;;;;;;;7.70;5.13;;;;;;;;;;5118066;28;20235;-80
2022/04/15 09:05:31;;;;;;;7.93;5.50;;;;;;;;;;5119501;27;20224;-81
2022/04/15 09:08:04;;;;;;;8.73;5.53;;;;;;;;;;5121934;27;20207;-80
2022/04/15 09:10:35;;;;;;;6.83;5.67;;;;;;;;;;5117506;28;20267;-80
2022/04/15 09:13:04;;;;;;;7.67;5.73;;;;;;;;;;5117721;28;20205;-81
2022/04/15 09:15:36;;;;;;;8.90;5.57;;;;;;;;;;5115806;28;20216;-80
2022/04/15 09:18:04;;;;;;;10.60;5.87;;;;;;;;;;5118182;27;20197;-80
2022/04/15 09:20:33;;;;;;;7.57;5.90;;;;;;;;;;5117376;28;20566;-78
2022/04/15 09:23:09;;;;;;;8.47;5.43;;;;;;;;;;5113180;28;20255;-80
2022/04/15 09:25:40;;;;;;;9.87;6.97;;;;;;;;;;5117280;28;20675;-80
2022/04/15 09:28:07;;;;;;;8.70;6.97;;;;;;;;;;5115914;28;20204;-80
2022/04/15 09:30:42;;;;;;;9.23;7.30;;;;;;;;;;5117631;28;20266;-81
2022/04/15 09:33:11;;;;;;;12.07;7.03;;;;;;;;;;5117625;28;20200;-81
2022/04/15 09:35:45;;;;;;;8.63;6.40;;;;;;;;;;5117084;28;20299;-81
2022/04/15 09:38:13;;;;;;;9.33;6.63;;;;;;;;;;5117160;28;20724;-79
2022/04/15 09:40:43;;;;;;;9.87;6.43;;;;;;;;;;5116562;28;20199;-81
2022/04/15 09:43:11;;;;;;;10.00;6.30;;;;;;;;;;5117482;28;20205;-81
2022/04/15 09:45:39;;;;;;;8.97;6.03;;;;;;;;;;5117242;28;20221;-80
2022/04/15 09:48:08;;;;;;;10.13;6.83;;;;;;;;;;5117560;28;20268;-81
2022/04/15 09:50:37;;;;;;;9.90;6.40;;;;;;;;;;5116987;28;20625;-81
2022/04/15 09:53:10;;;;;;;10.93;6.40;;;;;;;;;;5109577;28;20211;-82
2022/04/15 09:55:40;;;;;;;14.50;6.30;;;;;;;;;;5116895;28;20225;-82
2022/04/15 09:58:12;;;;;;;9.53;6.37;;;;;;;;;;5109503;28;20205;-81
2022/04/15 10:00:41;;;;;;;8.23;6.60;;;;;;;;;;5117164;28;20207;-80
2022/04/15 10:03:11;;;;;;;7.63;6.07;;;;;;;;;;5116413;28;20259;-82
2022/04/15 10:05:39;;;;;;;6.77;5.67;;;;;;;;;;5111947;28;20727;-83
2022/04/15 10:08:08;;;;;;;12.53;6.57;;;;;;;;;;5106925;28;20201;-83
2022/04/15 10:10:36;;;;;;;11.53;6.40;;;;;;;;;;5107164;28;20225;-82
2022/04/15 10:13:06;;;;;;;8.27;6.23;;;;;;;;;;5108969;28;20280;-82
2022/04/15 10:15:37;;;;;;;9.07;5.67;;;;;;;;;;5106289;28;20231;-82
2022/04/15 10:18:06;;;;;;;8.00;6.03;;;;;;;;;;5113893;28;20201;-79
2022/04/15 10:20:34;;;;;;;9.57;6.13;;;;;;;;;;5108675;28;20272;-79
2022/04/15 10:23:02;;;;;;;10.10;6.03;;;;;;;;;;5109533;28;20224;-81
2022/04/15 10:25:31;;;;;;;7.47;5.23;;;;;;;;;;5108368;28;20227;-80
2022/04/15 10:28:05;;;;;;;7.20;5.33;;;;;;;;;;5112223;28;20288;-76
2022/04/15 10:30:38;;;;;;;7.93;5.33;;;;;;;;;;5108299;28;20217;-80
2022/04/15 10:33:06;;;;;;;6.50;4.17;;;;;;;;;;5105259;28;20212;-79
2022/04/15 10:35:36;;;;;;;6.57;4.63;;;;;;;;;;5106854;28;20221;-82
2022/04/15 10:38:10;;;;;;;7.10;4.20;;;;;;;;;;5111233;28;20209;-81
2022/04/15 10:40:43;;;;;;;6.17;4.20;;;;;;;;;;5111438;27;20234;-82
2022/04/15 10:43:19;;;;;;;6.87;4.60;;;;;;;;;;5110774;28;20201;-80
2022/04/15 10:45:51;;;;;;;7.27;4.10;;;;;;;;;;5112144;28;20216;-81
2022/04/15 10:48:29;;;;;;;10.07;4.80;;;;;;;;;;5109069;27;20251;-80
2022/04/15 10:50:57;;;;;;;7.17;4.60;;;;;;;;;;5109628;28;20221;-81
2022/04/15 10:53:34;;;;;;;8.37;4.13;;;;;;;;;;5116307;28;20567;-81
2022/04/15 10:56:09;;;;;;;6.60;4.37;;;;;;;;;;5119206;28;20226;-80
2022/04/15 11:01:13;;;;;;;9.37;3.97;;;;;;;;;;5120027;28;20211;-80
2022/04/15 11:01:49;;;;;;;8.63;3.77;;;;;;;;;;5114680;28;20567;-80
2022/04/15 11:04:22;;;;;;;4.30;3.90;;;;;;;;;;5119899;28;20215;-80
2022/04/15 11:06:50;;;;;;;11.40;4.33;;;;;;;;;;5120143;28;20229;-79
2022/04/15 11:09:21;;;;;;;8.50;4.33;;;;;;;;;;5119339;28;20574;-80
2022/04/15 11:11:51;;;;;;;6.93;3.80;;;;;;;;;;5120015;28;20224;-81
2022/04/15 11:14:19;;;;;;;7.63;4.37;;;;;;;;;;5119884;28;20287;-81
2022/04/15 11:16:53;;;;;;;5.73;3.70;;;;;;;;;;5113037;28;20235;-79
2022/04/15 11:19:23;;;;;;;6.37;3.57;;;;;;;;;;5120025;28;20291;-78
2022/04/15 11:21:53;;;;;;;8.40;4.20;;;;;;;;;;5119403;28;20561;-80
2022/04/15 11:24:22;;;;;;;6.50;4.50;;;;;;;;;;5119575;28;20209;-74
2022/04/15 11:26:50;;;;;;;7.00;3.93;;;;;;;;;;5119661;28;20312;-79
2022/04/15 11:29:18;;;;;;;7.77;4.40;;;;;;;;;;5119589;28;20205;-79
2022/04/15 11:31:49;;;;;;;7.07;4.10;;;;;;;;;;5119691;28;20231;-79
2022/04/15 11:34:20;;;;;;;7.37;4.03;;;;;;;;;;5119534;28;20215;-78
2022/04/15 11:36:49;;;;;;;4.33;3.63;;;;;;;;;;5119483;28;20791;-78
2022/04/15 11:39:18;;;;;;;4.77;4.30;;;;;;;;;;5119249;28;20237;-79
2022/04/15 11:41:47;;;;;;;10.40;3.93;;;;;;;;;;5119150;28;20201;-80
2022/04/15 11:44:16;;;;;;;8.30;4.30;;;;;;;;;;5118458;27;20743;-80
2022/04/15 11:46:44;;;;;;;7.33;3.90;;;;;;;;;;5111225;28;20228;-73
2022/04/15 11:49:13;;;;;;;4.57;4.00;;;;;;;;;;5116614;28;20240;-78
2022/04/15 11:51:45;;;;;;;7.60;4.43;;;;;;;;;;5119122;28;20220;-79
2022/04/15 11:54:13;;;;;;;16.17;4.30;;;;;;;;;;5116344;27;20282;-79
2022/04/15 11:56:42;;;;;;;8.20;3.87;;;;;;;;;;5118576;28;20220;-80
2022/04/15 11:59:11;;;;;;;8.03;4.53;;;;;;;;;;5118550;28;20196;-79
2022/04/15 12:01:40;;;;;;;9.33;4.20;;;;;;;;;;5117929;28;20615;-79
2022/04/15 12:04:08;;;;;;;7.13;4.20;;;;;;;;;;5118362;28;20213;-80
2022/04/15 12:06:40;;;;;;;7.07;3.77;;;;;;;;;;5118739;27;20280;-79
2022/04/15 12:09:12;;;;;;;5.20;3.33;;;;;;;;;;5118505;28;20223;-80
2022/04/15 12:12:01;;;;;;;5.53;3.77;;;;;;;;;;5112079;28;20229;-80
2022/04/15 12:14:36;;;;;;;15.03;6.27;;;;;;;;;;5118801;28;20205;-79
2022/04/15 12:17:04;;;;;;;6.30;4.60;;;;;;;;;;5118365;28;20323;-79
2022/04/15 12:19:32;;;;;;;7.43;4.17;;;;;;;;;;5118184;28;20224;-80
2022/04/15 12:22:01;;;;;;;8.97;4.50;;;;;;;;;;5119326;28;20440;-79
2022/04/15 12:24:31;;;;;;;8.63;4.67;;;;;;;;;;5118107;28;20215;-80
2022/04/15 12:27:00;;;;;;;12.43;4.13;;;;;;;;;;5118089;28;20679;-79
2022/04/15 12:32:15;;;;;;;7.33;4.20;;;;;;;;;;5118065;28;20256;-80
2022/04/15 12:34:45;;;;;;;7.47;4.17;;;;;;;;;;5114684;28;20233;-79
2022/04/15 12:37:33;;;;;;;9.53;4.53;;;;;;;;;;5112189;28;20289;-81
2022/04/15 12:40:04;;;;;;;5.87;4.47;;;;;;;;;;5116074;28;20251;-81
2022/04/15 12:42:34;;;;;;;6.90;4.60;;;;;;;;;;5115398;28;20278;-81
2022/04/15 12:45:04;;;;;;;13.30;4.77;;;;;;;;;;5117561;28;20676;-81
2022/04/15 12:47:32;;;;;;;8.63;4.40;;;;;;;;;;5117373;28;20251;-79
2022/04/15 12:50:23;;;;;;;6.53;3.70;;;;;;;;;;5117980;28;20257;-80
2022/04/15 12:52:52;;;;;;;8.97;5.03;;;;;;;;;;5113244;27;20303;-79
2022/04/15 12:55:29;;;;;;;7.20;4.07;;;;;;;;;;5117512;28;20707;-80
2022/04/15 12:57:57;;;;;;;7.70;3.30;;;;;;;;;;5117624;28;20204;-79
2022/04/15 13:00:26;;;;;;;7.70;3.63;;;;;;;;;;5117685;28;20821;-79
2022/04/15 13:02:54;;;;;;;5.90;3.43;;;;;;;;;;5117545;28;20268;-80
2022/04/15 13:05:24;;;;;;;4.83;3.30;;;;;;;;;;5122759;27;20216;-79
2022/04/15 13:07:52;;;;;;;7.13;3.27;;;;;;;;;;5117958;27;20205;-78
2022/04/15 13:10:24;;;;;;;5.77;3.03;;;;;;;;;;5117376;28;20212;-78
2022/04/15 13:13:13;;;;;;;13.73;3.53;;;;;;;;;;5117409;28;20235;-81
2022/04/15 13:15:42;;;;;;;5.40;3.70;;;;;;;;;;5116931;28;20252;-79
2022/04/15 13:18:13;;;;;;;10.73;3.10;;;;;;;;;;5116579;28;20204;-80
2022/04/15 13:20:43;;;;;;;4.60;3.30;;;;;;;;;;5117652;28;20201;-80
2022/04/15 13:23:12;;;;;;;6.67;3.63;;;;;;;;;;5118110;28;20215;-77
2022/04/15 13:25:41;;;;;;;10.90;3.77;;;;;;;;;;5118410;28;20236;-79
2022/04/15 13:28:09;;;;;;;5.47;3.07;;;;;;;;;;5118422;28;20282;-80
2022/04/15 13:30:40;;;;;;;7.27;3.10;;;;;;;;;;5117872;28;20205;-78
2022/04/15 13:33:10;;;;;;;9.07;3.43;;;;;;;;;;5117055;28;20663;-78
2022/04/15 13:35:38;;;;;;;7.00;3.20;;;;;;;;;;5117562;28;20218;-78
2022/04/15 13:38:07;;;;;;;5.63;3.13;;;;;;;;;;5116814;28;20546;-80
2022/04/15 13:40:38;;;;;;;8.63;3.13;;;;;;;;;;5117161;28;20253;-78
2022/04/15 13:43:06;;;;;;;4.87;3.23;;;;;;;;;;5117047;28;20207;-78
2022/04/15 13:45:35;;;;;;;7.90;2.67;;;;;;;;;;5116841;28;20221;-80
2022/04/15 13:48:05;;;;;;;6.97;3.17;;;;;;;;;;5116893;28;20280;-78
2022/04/15 13:50:33;;;;;;;4.27;2.60;;;;;;;;;;5116742;28;20688;-78
2022/04/15 13:58:32;;;;;;;3.80;2.17;;;;;;;;;;5114687;28;20202;-80
2022/04/15 14:01:00;;;;;;;9.43;3.20;;;;;;;;;;5116778;28;20214;-77
2022/04/15 14:03:32;;;;;;;6.27;2.80;;;;;;;;;;5116602;28;20252;-78
2022/04/15 14:06:00;;;;;;;3.90;2.60;;;;;;;;;;5116578;28;20711;-78
2022/04/15 14:08:28;;;;;;;8.20;3.37;;;;;;;;;;5118294;28;20205;-77
2022/04/15 14:10:56;;;;;;;4.97;2.80;;;;;;;;;;5120338;27;20666;-75
2022/04/15 14:13:24;;;;;;;8.33;2.50;;;;;;;;;;5120148;28;20227;-76
2022/04/15 14:15:52;;;;;;;3.23;1.80;;;;;;;;;;5120597;28;20569;-77
2022/04/15 14:18:20;;;;;;;5.00;2.60;;;;;;;;;;5120670;28;20204;-73
2022/04/15 14:20:49;;;;;;;7.07;2.30;;;;;;;;;;5120959;28;20213;-74
2022/04/15 14:23:18;;;;;;;12.57;2.90;;;;;;;;;;5120405;28;20218;-74
2022/04/15 14:25:46;;;;;;;3.07;2.73;;;;;;;;;;5120303;28;20226;-76
2022/04/15 14:28:14;;;;;;;4.20;2.17;;;;;;;;;;5119677;27;20658;-75
2022/04/15 14:30:42;;;;;;;7.77;2.13;;;;;;;;;;5120309;28;20200;-75
2022/04/15 14:33:10;;;;;;;6.67;2.27;;;;;;;;;;5119699;28;20591;-75
2022/04/15 14:35:41;;;;;;;5.77;2.30;;;;;;;;;;5121249;27;20697;-77
2022/04/15 14:38:10;;;;;;;2.60;1.73;;;;;;;;;;5120225;28;20213;-76
2022/04/15 14:40:39;;;;;;;3.60;1.80;;;;;;;;;;5119591;28;20202;-77
2022/04/15 14:43:07;;;;;;;3.80;2.00;;;;;;;;;;5120922;27;20196;-77
2022/04/15 14:45:35;;;;;;;3.17;2.10;;;;;;;;;;5116674;28;20232;-77
2022/04/15 14:48:03;;;;;;;2.90;2.03;;;;;;;;;;5120938;28;20207;-77
2022/04/15 14:50:32;;;;;;;4.33;1.60;;;;;;;;;;5121084;28;20288;-75
2022/04/15 14:53:00;;;;;;;3.40;2.17;;;;;;;;;;5120922;27;20281;-78
2022/04/15 14:55:30;;;;;;;3.37;1.60;;;;;;;;;;5120354;27;20213;-78
2022/04/15 14:57:58;;;;;;;6.97;2.57;;;;;;;;;;5122391;27;20209;-78
2022/04/15 15:00:26;;;;;;;4.20;1.97;;;;;;;;;;5120156;28;20208;-78
2022/04/15 15:02:54;;;;;;;3.37;2.10;;;;;;;;;;5119900;28;20237;-80
2022/04/15 15:05:22;;;;;;;5.17;1.83;;;;;;;;;;5119460;28;20228;-77
2022/04/15 15:07:50;;;;;;;4.47;1.93;;;;;;;;;;5120137;28;20211;-77